Time;durP1;ratioP1;P1;durP2;ratioP2;P2;SDS_P1;SDS_P2;PMS_P1;PMS_P2;Temp;Humidity;BMP_temperature;BMP_pressure;BME280_temperature;BME280_humidity;BME280_pressure;Samples;Min_cycle;Max_cycle;Signal;HPM_P1;HPM_P2
2022/01/20 00:01:11;;;;;;;55.55;28.92;;;7.50;84.60;;;;;;10909854;32;20027;-72
2022/01/20 00:07:47;;;;;;;73.37;36.88;;;7.50;84.60;;;;;;10909735;32;20065;-72
2022/01/20 00:26:21;;;;;;;59.78;33.00;;;7.50;84.40;;;;;;10908557;32;20023;-72
2022/01/20 00:32:34;;;;;;;51.30;29.67;;;7.40;84.40;;;;;;10908898;32;20015;-72
2022/01/20 00:38:40;;;;;;;53.85;32.38;;;7.30;84.60;;;;;;10908632;32;20047;-72
2022/01/20 00:44:44;;;;;;;57.22;31.10;;;7.30;84.70;;;;;;10908485;32;20050;-71
2022/01/20 00:50:47;;;;;;;56.70;28.90;;;7.40;84.70;;;;;;10908267;32;20348;-72
2022/01/20 00:56:49;;;;;;;42.60;23.80;;;7.40;84.60;;;;;;10907873;32;20027;-72
2022/01/20 01:02:52;;;;;;;52.20;29.87;;;7.40;84.40;;;;;;10894506;32;20023;-71
2022/01/20 01:08:54;;;;;;;68.45;39.38;;;7.40;84.40;;;;;;10905355;32;20062;-72
2022/01/20 01:14:56;;;;;;;36.38;21.77;;;7.20;84.30;;;;;;10907476;32;20020;-72
2022/01/20 01:27:01;;;;;;;52.08;29.05;;;7.10;84.90;;;;;;10903305;32;20049;-73
2022/01/20 01:33:06;;;;;;;52.78;26.70;;;7.20;84.70;;;;;;10906049;32;20050;-73
2022/01/20 01:39:09;;;;;;;47.17;27.00;;;7.20;84.90;;;;;;10906450;32;20081;-73
2022/01/20 01:45:26;;;;;;;43.15;25.73;;;7.20;84.90;;;;;;10792812;27;20028;-73
2022/01/20 01:51:29;;;;;;;47.17;28.23;;;7.20;84.90;;;;;;10753060;33;20025;-73
2022/01/20 01:57:32;;;;;;;56.22;25.77;;;7.20;84.80;;;;;;10752662;33;20017;-73
2022/01/20 02:03:43;;;;;;;42.28;25.33;;;7.20;84.90;;;;;;10752563;33;20017;-73
2022/01/20 02:22:32;;;;;;;33.25;20.62;;;7.10;84.60;;;;;;10752261;33;20017;-73
2022/01/20 02:28:35;;;;;;;36.88;19.60;;;6.90;84.70;;;;;;10752194;32;20040;-73
2022/01/20 02:34:38;;;;;;;44.90;28.48;;;7.00;84.70;;;;;;10751737;33;20050;-73
2022/01/20 02:46:45;;;;;;;36.65;22.13;;;6.90;84.60;;;;;;10751226;33;20353;-73
2022/01/20 02:52:47;;;;;;;35.95;19.80;;;7.10;84.60;;;;;;10751287;33;20039;-73
2022/01/20 02:58:49;;;;;;;44.40;26.48;;;6.80;84.30;;;;;;10751156;33;20047;-73
2022/01/20 03:04:51;;;;;;;37.95;21.42;;;6.70;84.20;;;;;;10749031;33;20028;-73
2022/01/20 03:10:54;;;;;;;56.65;29.15;;;6.60;84.50;;;;;;10748646;33;20029;-73
2022/01/20 03:16:58;;;;;;;32.13;19.35;;;6.60;84.60;;;;;;10746622;33;20033;-73
2022/01/20 03:23:01;;;;;;;37.28;20.42;;;6.50;84.40;;;;;;10750724;33;20024;-73
2022/01/20 03:29:05;;;;;;;49.75;31.30;;;6.60;84.80;;;;;;10750680;33;20020;-73
2022/01/20 03:35:07;;;;;;;45.92;25.48;;;6.90;84.70;;;;;;10750493;33;20017;-73
2022/01/20 03:41:11;;;;;;;48.67;31.48;;;7.20;84.70;;;;;;10749792;33;20059;-73
2022/01/20 03:47:13;;;;;;;51.58;34.05;;;7.40;84.10;;;;;;10746103;33;20051;-73
2022/01/20 03:53:15;;;;;;;47.70;30.65;;;7.60;83.80;;;;;;10750044;33;20043;-73
2022/01/20 03:59:18;;;;;;;50.78;32.22;;;7.70;83.40;;;;;;10802806;32;20064;-73
2022/01/20 04:05:20;;;;;;;49.17;26.98;;;7.80;83.20;;;;;;10756021;33;20407;-74
2022/01/20 04:11:27;;;;;;;48.17;28.55;;;8.00;82.80;;;;;;10755903;33;20431;-73
2022/01/20 04:17:31;;;;;;;51.85;29.45;;;8.00;82.50;;;;;;10755541;33;20095;-73
2022/01/20 04:23:33;;;;;;;40.47;24.67;;;8.20;83.10;;;;;;10755396;33;20025;-73
2022/01/20 04:29:35;;;;;;;40.28;25.83;;;8.10;82.70;;;;;;10755340;33;20025;-73
2022/01/20 04:35:38;;;;;;;51.17;30.27;;;8.20;82.60;;;;;;10755045;33;20020;-73
2022/01/20 04:41:42;;;;;;;45.70;29.20;;;8.10;82.40;;;;;;10754833;33;20029;-73
2022/01/20 04:47:58;;;;;;;49.00;28.35;;;8.20;82.40;;;;;;10754864;33;20105;-73
2022/01/20 05:00:21;;;;;;;51.22;27.50;;;8.40;81.70;;;;;;10754529;33;20036;-73
2022/01/20 05:06:28;;;;;;;39.90;24.12;;;8.40;81.50;;;;;;10751273;33;20031;-74
2022/01/20 05:12:49;;;;;;;44.15;25.00;;;8.50;81.90;;;;;;10753863;33;20369;-73
2022/01/20 05:18:51;;;;;;;47.80;27.48;;;8.60;82.10;;;;;;10804465;32;20036;-73
2022/01/20 05:24:53;;;;;;;44.80;24.67;;;8.60;81.50;;;;;;10753817;33;20020;-73
2022/01/20 05:31:25;;;;;;;55.33;29.40;;;8.50;81.60;;;;;;10753684;33;20021;-73
2022/01/20 05:37:28;;;;;;;49.78;27.62;;;8.40;81.30;;;;;;10753265;33;20051;-73
2022/01/20 05:43:30;;;;;;;63.15;35.40;;;8.30;81.30;;;;;;10753278;32;20047;-73
2022/01/20 05:49:35;;;;;;;50.45;32.10;;;8.30;81.30;;;;;;10749784;33;20016;-73
2022/01/20 05:55:38;;;;;;;41.00;26.15;;;8.40;81.30;;;;;;10753030;33;20020;-73
2022/01/20 06:01:41;;;;;;;33.58;19.77;;;8.40;81.50;;;;;;10752657;33;20317;-73
2022/01/20 06:08:13;;;;;;;41.95;21.08;;;8.20;81.40;;;;;;10752537;33;20025;-73
2022/01/20 06:14:15;;;;;;;33.90;20.30;;;8.20;81.50;;;;;;10754032;33;20039;-73
2022/01/20 06:20:17;;;;;;;43.20;28.02;;;8.10;81.70;;;;;;10751663;33;20020;-73
2022/01/20 06:26:20;;;;;;;45.05;27.37;;;8.10;81.50;;;;;;10751967;33;20039;-73
2022/01/20 06:32:22;;;;;;;31.77;20.23;;;8.30;81.20;;;;;;10751064;33;20381;-73
2022/01/20 06:38:26;;;;;;;31.37;18.15;;;8.30;81.10;;;;;;10751314;33;20016;-73
2022/01/20 06:44:31;;;;;;;32.05;19.15;;;8.30;81.10;;;;;;10751081;33;20360;-73
2022/01/20 06:50:34;;;;;;;25.67;17.20;;;7.90;81.20;;;;;;10751335;33;20036;-73
2022/01/20 06:56:37;;;;;;;37.28;21.30;;;7.40;81.80;;;;;;10751089;33;20033;-73
2022/01/20 07:02:40;;;;;;;29.12;19.15;;;7.10;82.50;;;;;;10751328;33;20039;-72
2022/01/20 07:08:42;;;;;;;26.05;15.63;;;7.40;82.60;;;;;;10782958;32;20032;-73
2022/01/20 07:15:05;;;;;;;38.28;25.02;;;7.60;82.10;;;;;;10746885;33;20047;-73
2022/01/20 07:21:07;;;;;;;34.42;19.35;;;7.50;82.20;;;;;;10748988;33;20439;-73
2022/01/20 07:27:10;;;;;;;24.83;16.45;;;7.80;82.00;;;;;;10750898;32;20028;-73
2022/01/20 07:33:13;;;;;;;27.92;15.07;;;7.50;81.90;;;;;;10751214;33;20413;-74
2022/01/20 07:39:16;;;;;;;30.80;20.08;;;7.20;82.50;;;;;;10801742;32;20032;-73
2022/01/20 07:45:18;;;;;;;33.10;20.35;;;6.90;82.80;;;;;;10756442;33;20047;-73
2022/01/20 07:51:33;;;;;;;24.87;13.40;;;6.70;83.00;;;;;;10751958;33;20020;-73
2022/01/20 07:57:35;;;;;;;23.42;16.10;;;6.50;83.40;;;;;;10800927;32;20047;-74
2022/01/20 08:03:39;;;;;;;38.33;25.85;;;6.50;83.60;;;;;;10750388;33;20060;-74
2022/01/20 08:09:42;;;;;;;28.95;19.48;;;6.50;83.80;;;;;;10755422;33;20021;-74
2022/01/20 08:15:44;;;;;;;37.40;22.20;;;6.70;83.50;;;;;;10755340;33;20017;-74
2022/01/20 08:21:47;;;;;;;27.15;18.15;;;6.60;83.60;;;;;;10755561;33;20455;-74
2022/01/20 08:27:50;;;;;;;30.48;19.20;;;6.60;83.40;;;;;;10753120;33;20025;-74
2022/01/20 08:33:54;;;;;;;28.83;20.15;;;6.40;83.50;;;;;;10751121;33;20051;-72
2022/01/20 08:39:56;;;;;;;35.47;20.45;;;6.30;83.80;;;;;;10751889;33;20405;-72
2022/01/20 08:45:58;;;;;;;28.87;19.42;;;6.50;83.90;;;;;;10750443;33;20078;-72
2022/01/20 08:52:01;;;;;;;41.58;26.67;;;6.50;83.50;;;;;;10754610;33;20397;-73
2022/01/20 08:58:05;;;;;;;44.90;26.25;;;6.70;83.40;;;;;;10754365;33;20028;-72
2022/01/20 09:04:09;;;;;;;59.63;33.90;;;6.70;82.90;;;;;;10751404;33;20056;-73
2022/01/20 09:10:19;;;;;;;48.33;29.85;;;6.60;83.10;;;;;;10753949;32;20055;-72
2022/01/20 09:16:21;;;;;;;59.30;37.15;;;6.30;83.30;;;;;;10750276;33;20036;-72
2022/01/20 09:22:26;;;;;;;52.47;33.13;;;6.40;83.60;;;;;;10753812;33;20341;-72
2022/01/20 09:28:33;;;;;;;57.47;34.28;;;6.40;83.50;;;;;;10749442;33;20020;-72
2022/01/20 09:34:52;;;;;;;39.00;26.65;;;6.40;83.50;;;;;;10753398;33;20050;-72
2022/01/20 09:40:59;;;;;;;36.63;22.37;;;6.50;83.30;;;;;;10343209;27;14094826;-72
2022/01/20 09:47:02;;;;;;;58.38;37.80;;;6.60;83.90;;;;;;10902540;32;20027;-72
2022/01/20 09:53:05;;;;;;;48.72;30.05;;;6.80;83.60;;;;;;10902067;32;20031;-72
2022/01/20 09:59:09;;;;;;;46.83;28.65;;;6.90;83.50;;;;;;10901378;32;20035;-72
2022/01/20 10:05:11;;;;;;;45.80;31.20;;;6.80;83.20;;;;;;10902311;32;20048;-72
2022/01/20 10:11:20;;;;;;;47.85;29.90;;;7.00;83.60;;;;;;10902250;32;20035;-72
2022/01/20 10:17:47;;;;;;;52.83;36.03;;;7.00;82.80;;;;;;10760372;32;20055;-72
2022/01/20 10:23:50;;;;;;;47.25;28.70;;;6.90;82.70;;;;;;10714425;33;20064;-72
2022/01/20 10:30:33;;;;;;;66.85;39.92;;;7.00;82.90;;;;;;10715374;33;20401;-72
2022/01/20 10:36:46;;;;;;;56.88;32.88;;;7.10;82.70;;;;;;10765057;32;20018;-72
2022/01/20 10:42:49;;;;;;;52.62;33.35;;;7.20;82.50;;;;;;10714996;33;20021;-72
2022/01/20 10:49:00;;;;;;;47.92;31.48;;;7.20;82.10;;;;;;10711436;33;20055;-72
2022/01/20 10:55:07;;;;;;;66.28;39.75;;;7.20;82.00;;;;;;10714797;33;20033;-72
2022/01/20 11:01:17;;;;;;;69.15;38.58;;;7.30;81.20;;;;;;10714621;33;20080;-72
2022/01/20 11:07:20;;;;;;;52.00;38.10;;;7.30;81.10;;;;;;10779027;32;20439;-72
2022/01/20 11:13:30;;;;;;;53.17;34.80;;;7.40;80.70;;;;;;10721066;33;20048;-72
2022/01/20 11:19:46;;;;;;;49.70;36.42;;;7.50;80.10;;;;;;10771027;32;20020;-72
2022/01/20 11:26:12;;;;;;;52.25;35.83;;;7.70;80.00;;;;;;10720670;33;20022;-71
2022/01/20 11:32:23;;;;;;;52.65;37.63;;;7.90;79.70;;;;;;10720523;33;20071;-72
2022/01/20 11:38:50;;;;;;;39.38;26.08;;;8.10;79.80;;;;;;10719750;33;20028;-72
2022/01/20 11:44:52;;;;;;;47.88;30.90;;;8.20;79.50;;;;;;10765740;32;20032;-72
2022/01/20 11:51:06;;;;;;;50.50;37.13;;;8.50;79.20;;;;;;10715837;33;20021;-74
2022/01/20 11:57:14;;;;;;;51.42;33.67;;;8.60;78.50;;;;;;10719426;33;20029;-73
2022/01/20 12:03:16;;;;;;;52.42;35.92;;;8.60;78.30;;;;;;10719569;33;20029;-74
2022/01/20 12:09:30;;;;;;;40.78;27.62;;;8.60;78.70;;;;;;10717621;33;20048;-74
2022/01/20 12:15:33;;;;;;;62.78;30.48;;;8.70;78.30;;;;;;10714559;33;20451;-74
2022/01/20 12:21:37;;;;;;;36.03;24.42;;;8.80;78.00;;;;;;10717853;33;20063;-74
2022/01/20 12:27:45;;;;;;;45.33;32.25;;;8.90;78.30;;;;;;10715565;33;20295;-74
2022/01/20 12:33:47;;;;;;;44.88;28.42;;;9.00;77.10;;;;;;10718901;33;20021;-74
2022/01/20 12:39:49;;;;;;;51.90;32.33;;;9.00;77.20;;;;;;10718859;33;20325;-74
2022/01/20 12:45:57;;;;;;;60.50;38.20;;;9.00;76.80;;;;;;10717488;33;20066;-74
2022/01/20 12:51:59;;;;;;;72.40;46.13;;;8.90;76.90;;;;;;10716297;33;20056;-75
2022/01/20 12:58:01;;;;;;;83.87;55.90;;;8.80;76.40;;;;;;10718255;33;20056;-74
2022/01/20 13:04:05;;;;;;;66.05;38.38;;;8.50;77.10;;;;;;10780287;32;20029;-74
2022/01/20 13:10:22;;;;;;;64.50;39.35;;;8.50;77.50;;;;;;10717336;33;20345;-74
2022/01/20 13:16:26;;;;;;;66.70;39.58;;;8.30;77.00;;;;;;10714239;33;20033;-74
2022/01/20 13:22:54;;;;;;;88.70;45.47;;;8.30;77.30;;;;;;10717166;32;20326;-75
2022/01/20 13:28:58;;;;;;;82.25;56.05;;;8.30;77.50;;;;;;10777979;32;20048;-75
2022/01/20 13:35:02;;;;;;;80.80;50.97;;;8.30;77.20;;;;;;10776054;32;20067;-76
2022/01/20 13:41:11;;;;;;;66.60;50.38;;;8.20;76.30;;;;;;10713567;33;20067;-76
2022/01/20 13:47:13;;;;;;;62.20;46.87;;;8.00;76.60;;;;;;10716784;33;20039;-76
2022/01/20 13:53:22;;;;;;;57.35;38.25;;;7.90;76.90;;;;;;10716983;33;20021;-75
2022/01/20 13:59:24;;;;;;;76.53;45.33;;;7.90;77.50;;;;;;10714996;33;20047;-75
2022/01/20 14:05:34;;;;;;;72.82;47.67;;;7.80;77.40;;;;;;10714791;33;20052;-75
2022/01/20 14:11:36;;;;;;;68.32;44.65;;;7.70;77.20;;;;;;10711937;33;20111;-75
2022/01/20 14:17:39;;;;;;;81.25;50.12;;;7.60;77.50;;;;;;10716113;33;20417;-75
2022/01/20 14:23:41;;;;;;;65.62;39.67;;;7.60;77.70;;;;;;10777939;32;20358;-74
2022/01/20 14:29:49;;;;;;;76.53;48.03;;;7.60;77.90;;;;;;10715652;33;20017;-71
2022/01/20 14:35:51;;;;;;;70.53;43.70;;;7.60;77.60;;;;;;10711577;33;20099;-72
2022/01/20 14:41:53;;;;;;;78.05;46.78;;;7.50;77.00;;;;;;10714619;33;20032;-72
2022/01/20 14:47:55;;;;;;;80.22;41.85;;;7.40;77.30;;;;;;10715077;33;20319;-75
2022/01/20 14:53:57;;;;;;;61.92;38.08;;;7.50;77.60;;;;;;10715144;33;20416;-74
2022/01/20 15:00:00;;;;;;;75.32;44.90;;;7.50;77.70;;;;;;10715371;32;20079;-74
2022/01/20 15:06:03;;;;;;;69.12;43.47;;;7.50;77.80;;;;;;10714406;33;20059;-75
2022/01/20 15:12:08;;;;;;;69.87;41.65;;;7.30;77.90;;;;;;10714971;33;20033;-74
2022/01/20 15:18:18;;;;;;;60.12;33.05;;;7.30;78.20;;;;;;10714542;33;20033;-74
2022/01/20 15:24:20;;;;;;;48.00;29.90;;;7.40;78.60;;;;;;10714993;33;20451;-74
2022/01/20 15:30:23;;;;;;;76.25;48.03;;;7.40;78.50;;;;;;10714611;33;20357;-75
2022/01/20 15:36:26;;;;;;;58.65;37.15;;;7.40;78.90;;;;;;10714272;32;20024;-75
2022/01/20 15:42:28;;;;;;;48.53;29.08;;;7.50;79.00;;;;;;10714083;33;20390;-74
2022/01/20 15:48:31;;;;;;;53.92;33.42;;;7.50;79.00;;;;;;10714018;33;20326;-74
2022/01/20 15:54:33;;;;;;;39.70;23.58;;;7.50;79.20;;;;;;10715047;33;20389;-74
2022/01/20 16:00:36;;;;;;;36.20;23.08;;;7.60;79.90;;;;;;10719865;33;20063;-74
2022/01/20 16:06:40;;;;;;;40.97;24.15;;;7.70;80.10;;;;;;10719861;33;20346;-74
2022/01/20 16:12:42;;;;;;;37.55;21.58;;;7.60;80.20;;;;;;10719578;33;20033;-74
2022/01/20 16:18:44;;;;;;;47.55;29.15;;;7.70;80.80;;;;;;10719461;33;20016;-74
2022/01/20 16:24:46;;;;;;;28.92;20.70;;;8.10;80.80;;;;;;10718753;33;20063;-74
2022/01/20 16:30:48;;;;;;;38.25;24.27;;;8.10;80.60;;;;;;10717686;33;20025;-74
2022/01/20 16:37:27;;;;;;;36.13;22.42;;;8.10;81.20;;;;;;10768448;32;20406;-74
2022/01/20 16:43:30;;;;;;;37.10;24.30;;;8.00;81.00;;;;;;10718752;33;20020;-74
2022/01/20 16:49:34;;;;;;;41.08;24.77;;;8.00;81.40;;;;;;10718157;33;20029;-74
2022/01/20 16:55:36;;;;;;;42.13;28.75;;;7.90;81.60;;;;;;10718602;33;20424;-74
2022/01/20 17:01:39;;;;;;;65.20;39.35;;;8.20;81.90;;;;;;10717922;33;20424;-74
2022/01/20 17:07:56;;;;;;;54.08;31.48;;;8.70;81.10;;;;;;10713632;33;20048;-74
2022/01/20 17:13:58;;;;;;;51.22;29.98;;;9.00;81.10;;;;;;10715170;33;20158;-74
2022/01/20 17:20:00;;;;;;;59.70;38.38;;;9.10;80.40;;;;;;10765080;32;20055;-72
2022/01/20 17:26:03;;;;;;;43.22;27.10;;;9.30;80.30;;;;;;10717381;32;20059;-74
2022/01/20 17:32:06;;;;;;;59.35;35.90;;;9.20;79.80;;;;;;10717565;33;20394;-74
2022/01/20 17:38:08;;;;;;;65.10;40.17;;;9.10;80.20;;;;;;10716678;33;20440;-74
2022/01/20 17:44:13;;;;;;;52.08;34.45;;;9.00;80.00;;;;;;10741015;27;20044;-74
2022/01/20 17:50:15;;;;;;;50.05;29.37;;;9.10;80.00;;;;;;10753161;33;20044;-74
2022/01/20 17:56:17;;;;;;;37.80;25.02;;;9.00;79.90;;;;;;10753047;33;20047;-74
2022/01/20 18:02:19;;;;;;;49.00;29.15;;;8.90;79.90;;;;;;10752874;33;20393;-74
2022/01/20 18:08:21;;;;;;;60.22;37.95;;;8.80;79.80;;;;;;10752114;33;20369;-74
2022/01/20 18:14:27;;;;;;;77.65;47.83;;;8.90;80.10;;;;;;10801119;32;20039;-74
2022/01/20 18:20:29;;;;;;;52.28;33.17;;;8.90;80.10;;;;;;10750753;33;20435;-74
2022/01/20 18:26:31;;;;;;;53.13;37.40;;;8.80;79.80;;;;;;10798468;32;20380;-74
2022/01/20 18:32:56;;;;;;;56.33;37.55;;;8.70;79.70;;;;;;10751965;33;20047;-74
2022/01/20 18:39:00;;;;;;;60.90;41.00;;;8.50;79.60;;;;;;10751028;33;20025;-72
2022/01/20 18:45:04;;;;;;;47.60;32.13;;;8.50;79.70;;;;;;10749308;33;20032;-72
2022/01/20 18:51:15;;;;;;;49.95;34.15;;;8.50;80.00;;;;;;10751248;33;20055;-72
2022/01/20 18:57:17;;;;;;;58.03;40.33;;;8.20;80.00;;;;;;10751298;33;20029;-72
2022/01/20 19:03:19;;;;;;;55.38;37.65;;;8.20;80.10;;;;;;10801114;32;20013;-72
2022/01/20 19:09:23;;;;;;;57.70;34.30;;;8.20;80.20;;;;;;10750969;33;20052;-72
2022/01/20 19:15:25;;;;;;;47.85;29.67;;;8.20;80.30;;;;;;10751115;33;20012;-71
2022/01/20 19:21:27;;;;;;;48.22;33.58;;;7.50;80.50;;;;;;10750289;33;20398;-72
2022/01/20 19:28:01;;;;;;;62.58;42.58;;;7.50;81.30;;;;;;10752162;33;20021;-72
2022/01/20 19:34:03;;;;;;;59.60;39.28;;;7.30;81.20;;;;;;10757682;33;20382;-72
2022/01/20 19:40:08;;;;;;;73.28;48.03;;;7.50;81.00;;;;;;10753289;33;20329;-72
2022/01/20 19:46:10;;;;;;;78.78;54.83;;;7.40;80.70;;;;;;10756133;33;20029;-72
2022/01/20 19:52:13;;;;;;;62.80;42.80;;;7.50;81.20;;;;;;10756584;33;20047;-72
2022/01/20 19:58:16;;;;;;;56.72;38.38;;;7.50;80.40;;;;;;10756203;33;20024;-72
2022/01/20 20:04:26;;;;;;;57.75;38.00;;;7.30;80.70;;;;;;10755959;33;20025;-72
2022/01/20 20:10:31;;;;;;;64.40;43.92;;;7.40;80.60;;;;;;10755982;33;20024;-72
2022/01/20 20:16:36;;;;;;;60.60;38.58;;;7.20;81.00;;;;;;10755960;33;20049;-72
2022/01/20 20:22:38;;;;;;;61.25;40.40;;;7.40;81.40;;;;;;10755766;33;20385;-72
2022/01/20 20:28:40;;;;;;;70.28;49.55;;;7.40;80.70;;;;;;10755559;33;20012;-72
2022/01/20 20:34:44;;;;;;;51.10;34.60;;;7.40;80.70;;;;;;10755346;33;20025;-72
2022/01/20 20:40:46;;;;;;;70.78;47.47;;;7.20;80.00;;;;;;10754465;33;20013;-72
2022/01/20 20:46:52;;;;;;;71.28;45.88;;;6.90;81.00;;;;;;10755106;33;20016;-72
2022/01/20 20:52:54;;;;;;;54.85;37.50;;;7.10;80.80;;;;;;10817663;32;20290;-72
2022/01/20 20:58:57;;;;;;;50.20;34.97;;;7.00;80.30;;;;;;10805100;32;20423;-72
2022/01/20 21:04:59;;;;;;;44.03;32.30;;;6.70;80.60;;;;;;10753941;33;20020;-72
2022/01/20 21:11:02;;;;;;;53.63;36.30;;;6.30;80.60;;;;;;10804571;32;20056;-72
2022/01/20 21:17:13;;;;;;;56.83;35.72;;;5.90;81.40;;;;;;10753721;33;20025;-72
2022/01/20 21:23:15;;;;;;;61.88;37.88;;;6.20;81.30;;;;;;10753949;33;20063;-72
2022/01/20 21:29:17;;;;;;;67.57;43.67;;;6.40;80.60;;;;;;10752367;33;20043;-72
2022/01/20 21:35:19;;;;;;;66.60;40.58;;;6.40;80.40;;;;;;10753673;33;20059;-72
2022/01/20 21:41:25;;;;;;;66.60;41.22;;;6.60;80.40;;;;;;10752736;33;20055;-72
2022/01/20 21:47:28;;;;;;;57.85;40.95;;;6.40;80.00;;;;;;10753004;33;20402;-72
2022/01/20 21:53:34;;;;;;;62.95;44.40;;;6.20;80.60;;;;;;10751997;33;20043;-72
2022/01/20 21:59:37;;;;;;;62.17;42.20;;;6.40;80.30;;;;;;10750119;33;20028;-72
2022/01/20 22:05:49;;;;;;;60.67;40.25;;;6.50;80.40;;;;;;10753598;33;20051;-72
2022/01/20 22:11:52;;;;;;;65.82;44.15;;;6.50;80.00;;;;;;10752560;33;20056;-72
2022/01/20 22:17:53;;;;;;;84.30;53.33;;;6.30;80.40;;;;;;10752327;33;20024;-72
2022/01/20 22:23:56;;;;;;;71.97;48.87;;;6.40;80.10;;;;;;10752228;33;20313;-72
2022/01/20 22:29:58;;;;;;;82.85;52.47;;;6.50;80.10;;;;;;10752189;33;20051;-72
2022/01/20 22:36:01;;;;;;;71.10;45.25;;;6.10;80.20;;;;;;10748705;33;20024;-72
2022/01/20 22:42:03;;;;;;;66.40;39.35;;;5.90;80.60;;;;;;10814070;32;20047;-72
2022/01/20 22:48:07;;;;;;;58.70;36.50;;;6.00;80.20;;;;;;10751788;33;20062;-72
2022/01/20 22:54:16;;;;;;;72.95;50.08;;;5.50;80.10;;;;;;10751573;33;20039;-72
2022/01/20 23:00:22;;;;;;;54.58;37.42;;;5.40;81.00;;;;;;10751270;33;20051;-72
2022/01/20 23:06:24;;;;;;;44.15;30.67;;;5.60;80.80;;;;;;10750988;33;20017;-72
2022/01/20 23:12:26;;;;;;;46.28;30.25;;;5.40;80.10;;;;;;10801462;32;20341;-71
2022/01/20 23:18:56;;;;;;;41.72;28.95;;;5.00;80.80;;;;;;10813183;32;20032;-72
2022/01/20 23:25:00;;;;;;;49.10;30.25;;;4.90;80.90;;;;;;10750964;33;20025;-72
2022/01/20 23:31:03;;;;;;;38.58;29.25;;;4.70;81.10;;;;;;10800457;32;20025;-72
2022/01/20 23:37:06;;;;;;;45.50;32.17;;;4.50;81.20;;;;;;10750530;33;20024;-72
2022/01/20 23:43:23;;;;;;;47.35;35.28;;;4.50;81.50;;;;;;10750248;33;20403;-70
2022/01/20 23:49:25;;;;;;;39.80;29.65;;;4.70;81.10;;;;;;10748180;33;20067;-72
2022/01/20 23:55:28;;;;;;;42.92;34.88;;;4.50;80.80;;;;;;10799409;32;20258;-72
